Time;durP1;ratioP1;P1;durP2;ratioP2;P2;SDS_P1;SDS_P2;PMS_P1;PMS_P2;Temp;Humidity;BMP_temperature;BMP_pressure;BME280_temperature;BME280_humidity;BME280_pressure;Samples;Min_cycle;Max_cycle;Signal;HPM_P1;HPM_P2
2023/08/10 00:00:12;;;;;;;0.00;0.00;;;13.60;99.90;;;;;;5002423;28;20073;-59
2023/08/10 00:02:44;;;;;;;0.00;0.00;;;13.70;99.90;;;;;;5001580;28;20038;-59
2023/08/10 00:05:10;;;;;;;0.00;0.00;;;13.60;99.90;;;;;;5020896;28;20269;-59
2023/08/10 00:07:36;;;;;;;0.00;0.00;;;13.60;99.90;;;;;;5011712;28;20489;-58
2023/08/10 00:10:08;;;;;;;0.00;0.00;;;13.60;99.90;;;;;;5003190;28;20630;-59
2023/08/10 00:12:37;;;;;;;0.00;0.00;;;13.70;99.90;;;;;;5006395;28;20034;-59
2023/08/10 00:15:04;;;;;;;0.00;0.00;;;13.70;99.90;;;;;;5002935;28;20038;-58
2023/08/10 00:17:29;;;;;;;0.00;0.00;;;13.70;99.90;;;;;;5005957;28;20033;-59
2023/08/10 00:19:55;;;;;;;0.00;0.00;;;13.70;99.90;;;;;;5002542;28;20053;-59
2023/08/10 00:22:20;;;;;;;0.00;0.00;;;13.80;99.90;;;;;;5010021;28;20025;-59
2023/08/10 00:24:47;;;;;;;0.00;0.00;;;13.80;99.90;;;;;;5007733;28;20040;-58
2023/08/10 00:27:13;;;;;;;0.00;0.00;;;13.90;99.90;;;;;;5002539;28;20524;-59
2023/08/10 00:29:38;;;;;;;0.00;0.00;;;13.90;99.90;;;;;;5003613;28;20034;-60
2023/08/10 00:32:04;;;;;;;0.00;0.00;;;13.90;99.90;;;;;;5007830;28;20048;-59
2023/08/10 00:34:29;;;;;;;0.00;0.00;;;14.00;99.90;;;;;;5022970;28;20060;-59
2023/08/10 00:36:55;;;;;;;0.00;0.00;;;13.90;99.90;;;;;;5024358;28;20033;-59
2023/08/10 00:39:21;;;;;;;0.00;0.00;;;14.00;99.90;;;;;;5010400;28;20049;-59
2023/08/10 00:41:46;;;;;;;0.00;0.00;;;13.90;99.90;;;;;;5004483;28;20088;-59
2023/08/10 00:44:13;;;;;;;0.00;0.00;;;13.90;99.90;;;;;;5002362;28;20041;-59
2023/08/10 00:46:39;;;;;;;0.00;0.00;;;14.00;99.90;;;;;;5000563;28;20061;-59
2023/08/10 00:49:05;;;;;;;0.00;0.00;;;14.00;99.90;;;;;;5001572;28;20128;-60
2023/08/10 00:51:31;;;;;;;0.00;0.00;;;14.00;99.90;;;;;;5012116;28;20038;-59
2023/08/10 00:53:57;;;;;;;0.00;0.00;;;14.10;99.90;;;;;;5004344;28;20034;-59
2023/08/10 00:56:23;;;;;;;0.00;0.00;;;14.10;99.90;;;;;;5003591;28;20056;-59
2023/08/10 00:58:50;;;;;;;0.00;0.00;;;14.10;99.90;;;;;;5004234;28;20120;-59
2023/08/10 01:01:15;;;;;;;0.00;0.00;;;14.00;99.90;;;;;;5002665;28;20559;-58
2023/08/10 01:03:41;;;;;;;0.00;0.00;;;14.00;99.90;;;;;;5001281;28;20030;-58
2023/08/10 01:06:23;;;;;;;0.00;0.00;;;14.10;99.90;;;;;;5003635;28;20120;-58
2023/08/10 01:09:12;;;;;;;0.00;0.00;;;14.00;99.90;;;;;;5003355;28;20112;-58
2023/08/10 01:11:47;;;;;;;0.00;0.00;;;14.00;99.90;;;;;;5016447;28;20512;-58
2023/08/10 01:14:35;;;;;;;0.00;0.00;;;14.00;99.90;;;;;;5007290;28;20034;-58
2023/08/10 01:17:05;;;;;;;0.00;0.00;;;14.10;99.90;;;;;;5007098;28;20599;-58
2023/08/10 01:19:38;;;;;;;0.00;0.00;;;14.10;99.90;;;;;;5015230;28;20042;-58
2023/08/10 01:22:37;;;;;;;0.00;0.00;;;14.20;99.90;;;;;;5006663;28;20038;-59
2023/08/10 01:25:07;;;;;;;0.00;0.00;;;14.20;99.90;;;;;;5004044;28;20077;-60
2023/08/10 01:27:34;;;;;;;0.00;0.00;;;14.20;99.90;;;;;;5007263;28;20069;-60
2023/08/10 01:30:01;;;;;;;0.00;0.00;;;14.20;99.90;;;;;;5011088;28;20046;-59
2023/08/10 01:32:29;;;;;;;0.00;0.00;;;14.20;99.90;;;;;;5006243;28;20058;-59
2023/08/10 01:34:55;;;;;;;0.00;0.00;;;14.20;99.90;;;;;;5009832;28;20044;-60
2023/08/10 01:37:21;;;;;;;0.00;0.00;;;14.20;99.90;;;;;;5004302;28;20578;-60
2023/08/10 01:39:47;;;;;;;0.00;0.00;;;14.30;99.90;;;;;;5017668;28;20048;-59
2023/08/10 01:42:13;;;;;;;0.00;0.00;;;14.20;99.90;;;;;;5010096;28;20084;-60
2023/08/10 01:44:38;;;;;;;0.00;0.00;;;14.20;99.90;;;;;;5011326;28;20041;-60
2023/08/10 01:47:10;;;;;;;0.00;0.00;;;14.20;99.90;;;;;;5016481;28;20400;-59
2023/08/10 01:49:37;;;;;;;0.00;0.00;;;14.20;99.90;;;;;;5010370;28;20038;-60
2023/08/10 01:52:08;;;;;;;0.00;0.00;;;14.30;99.90;;;;;;5012069;28;20120;-58
2023/08/10 01:54:36;;;;;;;0.00;0.00;;;14.30;99.90;;;;;;5010017;28;20061;-59
2023/08/10 01:57:01;;;;;;;0.00;0.00;;;14.40;99.90;;;;;;5024918;28;20030;-59
2023/08/10 01:59:27;;;;;;;0.00;0.00;;;14.40;99.90;;;;;;5007679;28;20041;-59
2023/08/10 02:01:53;;;;;;;0.00;0.00;;;14.40;99.90;;;;;;5016531;28;20057;-59
2023/08/10 02:04:18;;;;;;;0.00;0.00;;;14.50;99.90;;;;;;5005730;28;20501;-59
2023/08/10 02:06:44;;;;;;;0.00;0.00;;;14.50;99.90;;;;;;5006344;28;20030;-58
2023/08/10 02:09:09;;;;;;;0.00;0.00;;;14.40;99.90;;;;;;5014069;28;20695;-58
2023/08/10 02:11:35;;;;;;;0.00;0.00;;;14.40;99.90;;;;;;5013502;28;20033;-60
2023/08/10 02:14:01;;;;;;;0.00;0.00;;;14.40;99.90;;;;;;5005269;28;20061;-59
2023/08/10 02:16:26;;;;;;;0.00;0.00;;;14.30;99.90;;;;;;5016736;28;20033;-60
2023/08/10 02:18:52;;;;;;;0.00;0.00;;;14.20;99.90;;;;;;5018607;28;20030;-59
2023/08/10 02:21:17;;;;;;;0.00;0.00;;;14.30;99.90;;;;;;5013580;28;20549;-59
2023/08/10 02:23:43;;;;;;;0.00;0.00;;;14.20;99.90;;;;;;5005624;28;20651;-59
2023/08/10 02:26:09;;;;;;;0.00;0.00;;;14.20;99.90;;;;;;5006154;28;20591;-59
2023/08/10 02:28:34;;;;;;;0.00;0.00;;;14.20;99.90;;;;;;5003241;28;20033;-59
2023/08/10 02:31:00;;;;;;;0.00;0.00;;;14.20;99.90;;;;;;5005871;28;20034;-59
2023/08/10 02:33:25;;;;;;;0.00;0.00;;;14.10;99.90;;;;;;5021293;28;20030;-58
2023/08/10 02:35:51;;;;;;;0.00;0.00;;;14.10;99.90;;;;;;5006341;28;20049;-58
2023/08/10 02:38:17;;;;;;;0.00;0.00;;;14.10;99.90;;;;;;5003915;28;20053;-58
2023/08/10 02:40:42;;;;;;;0.00;0.00;;;14.10;99.90;;;;;;5000818;28;20034;-59
2023/08/10 02:43:08;;;;;;;0.00;0.00;;;14.00;99.90;;;;;;5003959;28;20388;-59
2023/08/10 02:45:33;;;;;;;0.00;0.00;;;14.00;99.90;;;;;;4997995;28;20038;-60
2023/08/10 02:47:59;;;;;;;0.00;0.00;;;13.80;99.90;;;;;;5003588;28;20030;-59
2023/08/10 02:50:24;;;;;;;0.00;0.00;;;13.70;99.90;;;;;;5004282;28;20355;-59
2023/08/10 02:52:51;;;;;;;0.00;0.00;;;13.60;99.90;;;;;;5007736;28;20042;-59
2023/08/10 02:55:17;;;;;;;0.00;0.00;;;13.70;99.90;;;;;;5023940;28;20038;-59
2023/08/10 02:57:42;;;;;;;0.00;0.00;;;13.80;99.90;;;;;;5018238;28;20041;-59
2023/08/10 03:00:12;;;;;;;0.00;0.00;;;13.90;99.90;;;;;;5004775;28;20042;-59
2023/08/10 03:02:38;;;;;;;0.00;0.00;;;13.80;99.90;;;;;;5001750;28;20053;-59
2023/08/10 03:05:05;;;;;;;0.00;0.00;;;13.80;99.90;;;;;;5007389;28;20091;-60
2023/08/10 03:07:31;;;;;;;0.00;0.00;;;13.80;99.90;;;;;;5021381;28;20041;-59
2023/08/10 03:09:57;;;;;;;0.00;0.00;;;13.90;99.90;;;;;;5005825;28;20624;-58
2023/08/10 03:12:23;;;;;;;0.00;0.00;;;14.00;99.90;;;;;;5003807;28;20120;-59
2023/08/10 03:14:49;;;;;;;0.00;0.00;;;14.00;99.90;;;;;;4997374;28;20516;-59
2023/08/10 03:17:15;;;;;;;0.00;0.00;;;14.00;99.90;;;;;;5003883;28;20422;-58
2023/08/10 03:19:42;;;;;;;0.00;0.00;;;13.90;99.90;;;;;;5003834;28;20052;-60
2023/08/10 03:22:08;;;;;;;0.00;0.00;;;13.90;99.90;;;;;;5004855;28;20041;-58
2023/08/10 03:24:36;;;;;;;0.00;0.00;;;14.00;99.90;;;;;;5005004;28;20773;-59
2023/08/10 03:27:02;;;;;;;0.00;0.00;;;14.00;99.90;;;;;;5008446;28;20041;-59
2023/08/10 03:29:27;;;;;;;0.00;0.00;;;14.00;99.90;;;;;;5008567;28;20046;-59
2023/08/10 03:31:53;;;;;;;0.00;0.00;;;14.00;99.90;;;;;;5006584;28;20036;-59
2023/08/10 03:34:19;;;;;;;0.00;0.00;;;14.00;99.90;;;;;;5004959;28;20038;-59
2023/08/10 03:36:45;;;;;;;0.00;0.00;;;14.00;99.90;;;;;;5005121;28;20117;-60
2023/08/10 03:39:10;;;;;;;0.00;0.00;;;14.00;99.90;;;;;;5007582;28;20577;-59
2023/08/10 03:41:36;;;;;;;0.00;0.00;;;14.00;99.90;;;;;;5019612;28;20056;-59
2023/08/10 03:44:02;;;;;;;0.00;0.00;;;14.00;99.90;;;;;;5012567;28;20439;-59
2023/08/10 03:46:27;;;;;;;0.00;0.00;;;14.00;99.90;;;;;;5008799;28;20057;-59
2023/08/10 03:48:53;;;;;;;0.00;0.00;;;14.00;99.90;;;;;;5002870;28;20038;-59
2023/08/10 03:51:18;;;;;;;0.00;0.00;;;14.00;99.90;;;;;;5004203;28;20038;-59
2023/08/10 03:53:44;;;;;;;0.00;0.00;;;14.10;99.90;;;;;;5009410;28;20037;-60
2023/08/10 03:56:10;;;;;;;0.00;0.00;;;14.20;99.90;;;;;;5005612;28;20398;-58
2023/08/10 03:58:35;;;;;;;0.00;0.00;;;14.30;99.90;;;;;;5007491;28;20104;-58
2023/08/10 04:01:03;;;;;;;0.00;0.00;;;14.20;99.90;;;;;;5002033;28;20565;-58
2023/08/10 04:03:29;;;;;;;0.00;0.00;;;14.20;99.90;;;;;;5014911;28;20498;-59
2023/08/10 04:05:55;;;;;;;0.00;0.00;;;14.10;99.90;;;;;;5014843;28;20040;-58
2023/08/10 04:08:20;;;;;;;0.00;0.00;;;14.00;99.90;;;;;;5003823;28;20088;-57
2023/08/10 04:10:46;;;;;;;0.00;0.00;;;14.20;99.90;;;;;;5002023;28;20737;-59
2023/08/10 04:13:12;;;;;;;0.00;0.00;;;14.10;99.90;;;;;;5008116;28;20098;-59
2023/08/10 04:15:37;;;;;;;0.00;0.00;;;14.00;99.90;;;;;;4998426;28;20125;-58
2023/08/10 04:18:03;;;;;;;0.00;0.00;;;13.90;99.90;;;;;;5009527;28;20033;-59
2023/08/10 04:20:30;;;;;;;0.00;0.00;;;13.90;99.90;;;;;;5012620;28;20052;-58
2023/08/10 04:22:57;;;;;;;0.00;0.00;;;14.00;99.90;;;;;;5001964;28;20062;-58
2023/08/10 04:25:23;;;;;;;0.00;0.00;;;13.90;99.90;;;;;;5003974;28;20044;-59
2023/08/10 04:27:48;;;;;;;0.00;0.00;;;13.90;99.90;;;;;;5004692;28;20042;-58
2023/08/10 04:30:14;;;;;;;0.00;0.00;;;14.00;99.90;;;;;;5005077;28;20096;-58
2023/08/10 04:32:39;;;;;;;0.00;0.00;;;14.10;99.90;;;;;;5001911;28;20045;-58
2023/08/10 04:35:06;;;;;;;0.00;0.00;;;14.10;99.90;;;;;;5006464;28;20034;-58
2023/08/10 04:37:32;;;;;;;0.00;0.00;;;14.00;99.90;;;;;;5010381;28;20045;-58
2023/08/10 04:39:57;;;;;;;0.00;0.00;;;13.90;99.90;;;;;;5009920;28;20046;-58
2023/08/10 04:42:23;;;;;;;0.00;0.00;;;13.80;99.90;;;;;;4997364;28;20042;-58
2023/08/10 04:44:48;;;;;;;0.00;0.00;;;13.80;99.90;;;;;;5000225;28;20125;-58
2023/08/10 04:47:14;;;;;;;0.00;0.00;;;13.70;99.90;;;;;;4993329;28;20050;-59
2023/08/10 04:49:40;;;;;;;0.00;0.00;;;13.70;99.90;;;;;;5003847;28;20114;-59
2023/08/10 04:52:05;;;;;;;0.00;0.00;;;13.70;99.90;;;;;;5004645;28;20092;-59
2023/08/10 04:54:31;;;;;;;0.00;0.00;;;13.60;99.90;;;;;;4997842;28;20041;-59
2023/08/10 04:56:56;;;;;;;0.00;0.00;;;13.70;99.90;;;;;;5006955;28;20037;-60
2023/08/10 04:59:22;;;;;;;0.00;0.00;;;13.60;99.90;;;;;;5010515;28;20049;-58
2023/08/10 05:01:48;;;;;;;0.00;0.00;;;13.60;99.90;;;;;;5007523;28;20402;-59
2023/08/10 05:04:14;;;;;;;0.00;0.00;;;13.60;99.90;;;;;;5001384;28;20065;-60
2023/08/10 05:06:40;;;;;;;0.00;0.00;;;13.60;99.90;;;;;;5020634;28;20647;-58
2023/08/10 05:09:06;;;;;;;0.00;0.00;;;13.60;99.90;;;;;;5011150;28;20026;-57
2023/08/10 05:11:32;;;;;;;0.00;0.00;;;13.60;99.90;;;;;;5010958;28;20040;-59
2023/08/10 05:13:58;;;;;;;0.00;0.00;;;13.70;99.90;;;;;;4994739;28;20120;-59
2023/08/10 05:16:23;;;;;;;0.00;0.00;;;13.60;99.90;;;;;;5000400;28;20113;-60
2023/08/10 05:18:50;;;;;;;0.00;0.00;;;13.60;99.90;;;;;;4998242;28;20154;-59
2023/08/10 05:21:17;;;;;;;0.00;0.00;;;13.70;99.90;;;;;;5003828;28;20492;-59
2023/08/10 05:23:43;;;;;;;0.00;0.00;;;13.60;99.90;;;;;;5008967;28;20045;-58
2023/08/10 05:26:08;;;;;;;0.00;0.00;;;13.60;99.90;;;;;;4996873;28;20038;-58
2023/08/10 05:28:34;;;;;;;0.00;0.00;;;13.70;99.90;;;;;;4993787;28;20053;-58
2023/08/10 05:31:00;;;;;;;0.00;0.00;;;13.80;99.90;;;;;;4990973;28;20435;-61
2023/08/10 05:33:26;;;;;;;0.00;0.00;;;13.90;99.90;;;;;;5003702;28;20037;-58
2023/08/10 05:35:51;;;;;;;0.00;0.00;;;14.00;99.90;;;;;;5002329;28;20029;-59
2023/08/10 05:38:17;;;;;;;0.00;0.00;;;13.90;99.90;;;;;;4995157;28;20474;-59
2023/08/10 05:40:42;;;;;;;0.00;0.00;;;13.90;99.90;;;;;;5013157;28;20037;-57
2023/08/10 05:43:08;;;;;;;0.00;0.00;;;14.00;99.90;;;;;;5015642;28;20149;-58
2023/08/10 05:45:34;;;;;;;0.00;0.00;;;14.10;99.90;;;;;;5002063;28;20041;-58
2023/08/10 05:47:59;;;;;;;0.00;0.00;;;14.10;99.90;;;;;;4997465;28;20088;-57
2023/08/10 05:50:25;;;;;;;0.00;0.00;;;14.30;99.90;;;;;;5001090;28;20367;-57
2023/08/10 05:52:50;;;;;;;0.00;0.00;;;14.50;99.90;;;;;;4997690;28;20038;-58
2023/08/10 05:55:16;;;;;;;0.00;0.00;;;14.70;99.90;;;;;;5007627;28;20427;-58
2023/08/10 05:57:42;;;;;;;0.00;0.00;;;14.90;99.90;;;;;;5025284;28;20034;-58
2023/08/10 06:00:11;;;;;;;0.00;0.00;;;15.10;99.90;;;;;;5014180;28;20042;-57
2023/08/10 06:02:38;;;;;;;0.00;0.00;;;15.00;99.90;;;;;;4999915;28;20041;-58
2023/08/10 06:05:06;;;;;;;0.00;0.00;;;15.10;99.90;;;;;;5002777;28;20560;-59
2023/08/10 06:07:34;;;;;;;0.00;0.00;;;15.20;99.90;;;;;;5007341;28;20038;-58
2023/08/10 06:10:00;;;;;;;0.00;0.00;;;15.10;99.90;;;;;;5011187;28;20066;-58
2023/08/10 06:12:26;;;;;;;0.00;0.00;;;15.10;99.90;;;;;;4999035;28;20524;-59
2023/08/10 06:14:52;;;;;;;0.00;0.00;;;15.20;99.90;;;;;;5000307;28;20037;-59
2023/08/10 06:17:17;;;;;;;0.00;0.00;;;15.30;99.90;;;;;;5010902;28;20040;-58
2023/08/10 06:19:51;;;;;;;0.00;0.00;;;15.40;99.90;;;;;;5015748;28;20498;-59
2023/08/10 06:22:17;;;;;;;0.00;0.00;;;15.40;99.90;;;;;;5015135;28;20452;-58
2023/08/10 06:24:43;;;;;;;0.00;0.00;;;15.60;99.90;;;;;;5002899;28;20095;-58
2023/08/10 06:27:09;;;;;;;0.00;0.00;;;15.70;99.90;;;;;;5001815;28;20042;-59
2023/08/10 06:29:35;;;;;;;0.00;0.00;;;15.70;99.90;;;;;;5004755;28;20083;-58
2023/08/10 06:32:05;;;;;;;0.00;0.00;;;15.90;99.90;;;;;;5037242;28;20412;-58
2023/08/10 06:34:30;;;;;;;0.00;0.00;;;15.90;99.90;;;;;;5025444;28;20631;-59
2023/08/10 06:36:56;;;;;;;0.00;0.00;;;16.00;99.90;;;;;;5017352;28;20099;-59
2023/08/10 06:39:21;;;;;;;0.00;0.00;;;16.00;99.90;;;;;;5020672;28;20045;-58
2023/08/10 06:41:47;;;;;;;0.00;0.00;;;16.00;99.90;;;;;;5019463;28;20482;-60
2023/08/10 06:44:13;;;;;;;0.00;0.00;;;16.10;99.90;;;;;;5001136;28;20038;-59
2023/08/10 06:46:38;;;;;;;0.00;0.00;;;16.10;99.90;;;;;;5001085;28;20120;-59
2023/08/10 06:49:04;;;;;;;0.00;0.00;;;16.10;99.90;;;;;;5002157;28;20714;-59
2023/08/10 06:51:30;;;;;;;0.00;0.00;;;16.20;99.90;;;;;;5002283;28;20091;-59
2023/08/10 06:53:55;;;;;;;0.00;0.00;;;16.30;99.90;;;;;;5002901;28;20041;-59
2023/08/10 06:56:21;;;;;;;0.00;0.00;;;16.30;99.90;;;;;;5004307;28;20042;-58
2023/08/10 06:58:46;;;;;;;0.00;0.00;;;16.30;99.90;;;;;;5005986;28;20367;-59
2023/08/10 07:01:13;;;;;;;0.00;0.00;;;16.40;99.90;;;;;;5002776;28;20489;-59
2023/08/10 07:03:38;;;;;;;0.00;0.00;;;16.50;99.90;;;;;;5005300;28;20030;-59
2023/08/10 07:06:04;;;;;;;0.00;0.00;;;16.60;99.90;;;;;;5005603;28;20112;-60
2023/08/10 07:08:30;;;;;;;0.00;0.00;;;16.60;99.90;;;;;;5006674;28;20037;-59
2023/08/10 07:10:55;;;;;;;0.00;0.00;;;16.70;99.90;;;;;;5014349;28;20041;-60
2023/08/10 07:13:21;;;;;;;0.00;0.00;;;16.60;99.90;;;;;;5004750;28;20072;-59
2023/08/10 07:15:47;;;;;;;0.00;0.00;;;16.70;99.90;;;;;;5006696;28;20057;-59
2023/08/10 07:18:14;;;;;;;0.00;0.00;;;16.90;99.90;;;;;;5005738;28;20125;-59
2023/08/10 07:20:40;;;;;;;0.00;0.00;;;16.90;99.90;;;;;;5006223;28;20041;-60
2023/08/10 07:23:06;;;;;;;0.00;0.00;;;17.00;99.90;;;;;;5000203;28;20063;-59
2023/08/10 07:25:31;;;;;;;0.00;0.00;;;17.10;99.90;;;;;;4999997;28;20533;-60
2023/08/10 07:27:57;;;;;;;0.00;0.00;;;16.90;99.90;;;;;;5005802;28;20038;-59
2023/08/10 07:30:23;;;;;;;0.00;0.00;;;17.00;99.90;;;;;;5005999;28;20069;-59
2023/08/10 07:32:48;;;;;;;0.00;0.00;;;17.10;99.90;;;;;;5006319;28;20052;-59
2023/08/10 07:35:14;;;;;;;0.00;0.00;;;17.10;99.90;;;;;;4996055;28;20041;-58
2023/08/10 07:37:40;;;;;;;0.00;0.00;;;17.10;99.90;;;;;;5006542;28;20269;-58
2023/08/10 07:40:09;;;;;;;0.00;0.00;;;17.20;99.90;;;;;;5008776;28;20037;-59
2023/08/10 07:42:35;;;;;;;0.00;0.00;;;17.30;99.90;;;;;;5015619;28;20034;-58
2023/08/10 07:45:00;;;;;;;0.00;0.00;;;17.30;99.90;;;;;;5010631;28;20099;-58
2023/08/10 07:47:26;;;;;;;0.00;0.00;;;17.30;99.90;;;;;;5005061;28;20487;-59
2023/08/10 07:49:51;;;;;;;0.00;0.00;;;17.30;99.90;;;;;;4998797;28;20061;-58
2023/08/10 07:52:17;;;;;;;0.00;0.00;;;17.20;99.90;;;;;;4999196;28;20125;-59
2023/08/10 07:54:44;;;;;;;0.00;0.00;;;17.50;99.90;;;;;;5002976;28;20112;-58
2023/08/10 07:57:09;;;;;;;0.00;0.00;;;17.70;99.90;;;;;;5002111;28;20042;-59
2023/08/10 07:59:35;;;;;;;0.00;0.00;;;17.60;99.90;;;;;;5001704;28;20045;-58
2023/08/10 08:02:00;;;;;;;0.00;0.00;;;17.70;99.90;;;;;;5012742;28;20076;-59
2023/08/10 08:04:26;;;;;;;0.00;0.00;;;17.70;99.90;;;;;;5002948;28;20064;-59
2023/08/10 08:06:52;;;;;;;0.00;0.00;;;17.80;99.90;;;;;;4996349;28;20044;-60
2023/08/10 08:09:17;;;;;;;0.00;0.00;;;18.00;99.90;;;;;;5003098;28;20687;-58
2023/08/10 08:11:43;;;;;;;0.00;0.00;;;18.00;99.90;;;;;;5004350;28;20029;-60
2023/08/10 08:14:08;;;;;;;0.00;0.00;;;18.00;99.90;;;;;;5002115;28;20318;-59
2023/08/10 08:16:34;;;;;;;0.00;0.00;;;18.00;99.90;;;;;;5007706;28;20037;-60
2023/08/10 08:19:00;;;;;;;0.00;0.00;;;17.90;99.90;;;;;;5009512;28;20116;-58
2023/08/10 08:21:28;;;;;;;0.00;0.00;;;18.00;99.90;;;;;;5010352;28;20026;-59
2023/08/10 08:23:55;;;;;;;0.00;0.00;;;18.00;99.90;;;;;;5006307;28;20037;-58
2023/08/10 08:26:26;;;;;;;0.00;0.00;;;18.10;99.90;;;;;;5006957;28;20038;-60
2023/08/10 08:28:52;;;;;;;0.00;0.00;;;18.10;99.90;;;;;;5007864;28;20030;-59
2023/08/10 08:31:18;;;;;;;0.00;0.00;;;18.10;99.90;;;;;;5005399;28;20045;-59
2023/08/10 08:33:43;;;;;;;0.00;0.00;;;18.20;99.90;;;;;;5007791;28;20030;-60
2023/08/10 08:36:09;;;;;;;0.00;0.00;;;18.10;99.90;;;;;;5006894;28;20053;-60
2023/08/10 08:38:37;;;;;;;0.00;0.00;;;18.40;99.90;;;;;;5011011;28;20120;-59
2023/08/10 08:41:06;;;;;;;0.00;0.00;;;18.30;99.90;;;;;;5002269;28;20124;-59
2023/08/10 08:43:33;;;;;;;0.00;0.00;;;18.40;99.90;;;;;;5006041;28;20048;-58
2023/08/10 08:46:00;;;;;;;0.00;0.00;;;18.50;99.90;;;;;;5008453;28;20537;-59
2023/08/10 08:48:27;;;;;;;0.00;0.00;;;18.50;99.90;;;;;;5010738;28;20176;-59
2023/08/10 08:50:54;;;;;;;0.00;0.00;;;18.70;99.90;;;;;;5006580;28;20037;-59
2023/08/10 08:53:20;;;;;;;0.00;0.00;;;18.70;99.90;;;;;;5007687;28;20034;-59
2023/08/10 08:55:46;;;;;;;0.00;0.00;;;18.70;99.90;;;;;;5009386;28;20088;-59
2023/08/10 08:58:15;;;;;;;0.00;0.00;;;18.70;99.90;;;;;;5004978;28;20647;-59
2023/08/10 09:00:45;;;;;;;0.00;0.00;;;18.70;99.90;;;;;;5013086;28;20038;-60
2023/08/10 09:03:11;;;;;;;0.00;0.00;;;18.90;99.90;;;;;;5007710;28;20042;-60
2023/08/10 09:05:36;;;;;;;0.00;0.00;;;18.80;99.90;;;;;;5012076;28;20048;-60
2023/08/10 09:08:03;;;;;;;0.00;0.00;;;18.90;99.90;;;;;;5015037;28;20397;-60
2023/08/10 09:10:29;;;;;;;0.00;0.00;;;19.10;99.90;;;;;;5010807;28;20117;-59
2023/08/10 09:12:55;;;;;;;0.00;0.00;;;19.00;99.90;;;;;;5014133;28;20045;-59
2023/08/10 09:15:21;;;;;;;0.00;0.00;;;18.80;99.90;;;;;;5003406;28;20041;-59
2023/08/10 09:17:52;;;;;;;0.00;0.00;;;;;;;;;;5003405;28;20049;-60
2023/08/10 09:20:25;;;;;;;0.00;0.00;;;19.30;99.90;;;;;;5000492;28;20088;-60
2023/08/10 09:22:56;;;;;;;0.00;0.00;;;19.50;99.90;;;;;;5003378;28;20095;-60
2023/08/10 09:25:22;;;;;;;0.00;0.00;;;19.50;99.90;;;;;;5000846;28;20480;-60
2023/08/10 09:27:49;;;;;;;0.00;0.00;;;19.50;99.90;;;;;;5009803;28;20501;-60
2023/08/10 09:30:16;;;;;;;0.00;0.00;;;19.60;99.90;;;;;;5002090;28;20045;-59
2023/08/10 09:32:41;;;;;;;0.00;0.00;;;19.70;99.90;;;;;;5004335;28;20038;-60
2023/08/10 09:35:15;;;;;;;0.00;0.00;;;19.60;99.90;;;;;;5005920;28;20103;-60
2023/08/10 09:37:42;;;;;;;0.00;0.00;;;19.60;99.90;;;;;;5005214;28;20042;-59
2023/08/10 09:40:10;;;;;;;0.00;0.00;;;19.70;99.90;;;;;;5004396;28;20050;-60
2023/08/10 09:42:37;;;;;;;0.00;0.00;;;19.60;99.90;;;;;;5003365;28;20239;-60
2023/08/10 09:45:11;;;;;;;0.00;0.00;;;19.70;99.90;;;;;;5005398;28;20037;-59
2023/08/10 09:47:39;;;;;;;0.00;0.00;;;19.70;99.90;;;;;;5010924;28;20048;-60
2023/08/10 09:50:09;;;;;;;0.00;0.00;;;19.80;99.90;;;;;;5008697;28;20125;-60
2023/08/10 09:52:36;;;;;;;0.00;0.00;;;19.90;99.90;;;;;;5015531;28;20056;-60
2023/08/10 09:55:04;;;;;;;0.00;0.00;;;19.90;99.90;;;;;;5007227;28;20038;-59
2023/08/10 09:57:29;;;;;;;0.00;0.00;;;21.90;99.90;;;;;;5003148;28;20089;-59
2023/08/10 09:59:55;;;;;;;0.00;0.00;;;20.00;99.90;;;;;;5004274;28;20127;-60
2023/08/10 10:02:22;;;;;;;0.00;0.00;;;19.90;99.90;;;;;;5010421;28;20400;-60
2023/08/10 10:04:49;;;;;;;0.00;0.00;;;20.30;99.90;;;;;;5022527;28;20060;-60
2023/08/10 10:07:21;;;;;;;0.00;0.00;;;20.30;99.90;;;;;;5025550;28;20038;-60
2023/08/10 10:09:48;;;;;;;0.00;0.00;;;20.80;99.90;;;;;;5026388;28;20132;-59
2023/08/10 10:12:14;;;;;;;0.00;0.00;;;20.40;99.90;;;;;;5025796;28;20120;-59
2023/08/10 10:14:45;;;;;;;0.00;0.00;;;20.40;99.90;;;;;;5024914;28;20036;-60
2023/08/10 10:17:18;;;;;;;0.00;0.00;;;20.30;99.90;;;;;;5024599;28;20060;-59
2023/08/10 10:19:44;;;;;;;;;;;20.40;99.90;;;;;;5025218;28;20464;-60
2023/08/10 10:22:10;;;;;;;0.00;0.00;;;20.60;99.90;;;;;;5024263;28;19920;-60
2023/08/10 10:24:41;;;;;;;0.00;0.00;;;20.50;99.90;;;;;;5022884;28;20099;-60
2023/08/10 10:27:11;;;;;;;0.00;0.00;;;20.90;99.90;;;;;;5025349;28;20447;-60
2023/08/10 10:29:56;;;;;;;0.00;0.00;;;20.70;99.90;;;;;;5025333;28;20030;-60
2023/08/10 10:32:23;;;;;;;0.00;0.00;;;20.60;99.90;;;;;;5022494;28;20068;-60
2023/08/10 10:34:51;;;;;;;0.00;0.00;;;20.70;99.90;;;;;;5020019;28;20401;-60
2023/08/10 10:37:53;;;;;;;0.00;0.00;;;20.70;99.90;;;;;;5024903;28;20068;-60
2023/08/10 10:40:22;;;;;;;0.00;0.00;;;20.70;99.90;;;;;;5008599;28;20103;-59
2023/08/10 10:43:07;;;;;;;0.00;0.00;;;21.00;99.90;;;;;;5003671;28;20045;-60
2023/08/10 10:45:43;;;;;;;0.00;0.00;;;20.80;99.90;;;;;;5008387;28;20632;-59
2023/08/10 10:48:13;;;;;;;0.00;0.00;;;20.70;99.90;;;;;;5003141;28;20046;-60
2023/08/10 10:50:39;;;;;;;0.00;0.00;;;20.90;99.90;;;;;;5012562;28;20033;-60
2023/08/10 10:53:15;;;;;;;0.00;0.00;;;21.00;99.90;;;;;;5021472;28;20614;-60
2023/08/10 10:55:42;;;;;;;0.00;0.00;;;21.00;99.90;;;;;;5021189;28;20041;-59
2023/08/10 10:58:15;;;;;;;0.00;0.00;;;21.20;99.90;;;;;;5023446;28;20072;-60
2023/08/10 11:00:43;;;;;;;0.00;0.00;;;19.90;99.90;;;;;;5022474;28;20048;-60
2023/08/10 11:03:10;;;;;;;0.00;0.00;;;21.00;99.90;;;;;;5010750;28;20041;-60
2023/08/10 11:05:37;;;;;;;0.00;0.00;;;21.10;99.90;;;;;;5009125;28;20038;-59
2023/08/10 11:08:03;;;;;;;0.00;0.00;;;21.00;99.90;;;;;;5012386;28;20405;-60
2023/08/10 11:10:36;;;;;;;0.00;0.00;;;21.10;99.90;;;;;;5010991;28;20121;-60
2023/08/10 11:13:11;;;;;;;0.00;0.00;;;21.30;99.90;;;;;;5014004;28;20784;-60
2023/08/10 11:15:37;;;;;;;0.00;0.00;;;21.30;99.90;;;;;;5001813;28;20045;-60
2023/08/10 11:18:11;;;;;;;0.00;0.00;;;21.20;99.90;;;;;;4999746;28;20046;-60
2023/08/10 11:20:45;;;;;;;0.00;0.00;;;20.90;99.90;;;;;;5003840;28;20042;-60
2023/08/10 11:23:11;;;;;;;0.00;0.00;;;21.20;99.90;;;;;;5002679;28;20042;-60
2023/08/10 11:25:46;;;;;;;0.00;0.00;;;21.20;99.90;;;;;;5003377;28;20044;-60
2023/08/10 11:28:14;;;;;;;0.00;0.00;;;21.20;99.90;;;;;;5018648;28;20136;-60
2023/08/10 11:30:39;;;;;;;0.00;0.00;;;21.40;99.90;;;;;;5022522;28;20109;-60
2023/08/10 11:33:05;;;;;;;0.00;0.00;;;21.30;99.90;;;;;;5015185;28;20152;-60
2023/08/10 11:35:31;;;;;;;0.00;0.00;;;21.20;99.90;;;;;;5021264;28;20037;-60
2023/08/10 11:37:56;;;;;;;0.00;0.00;;;21.30;99.90;;;;;;5023894;28;20041;-60
2023/08/10 11:40:23;;;;;;;0.00;0.00;;;21.50;99.90;;;;;;5022211;28;20040;-60
2023/08/10 11:43:03;;;;;;;0.00;0.00;;;21.60;99.90;;;;;;5011516;28;20049;-60
2023/08/10 11:45:29;;;;;;;0.00;0.00;;;21.40;99.90;;;;;;5017120;28;20038;-61
2023/08/10 11:47:57;;;;;;;0.00;0.00;;;21.50;99.90;;;;;;5023734;28;20457;-59
2023/08/10 11:50:25;;;;;;;0.00;0.00;;;21.60;99.90;;;;;;5023204;28;20222;-61
2023/08/10 11:52:55;;;;;;;0.00;0.00;;;21.50;99.90;;;;;;5014578;28;20402;-60
2023/08/10 11:55:21;;;;;;;0.00;0.00;;;21.50;99.90;;;;;;4998508;28;20045;-60
2023/08/10 11:57:51;;;;;;;0.00;0.00;;;21.40;99.90;;;;;;5003988;28;20096;-60
2023/08/10 12:00:33;;;;;;;0.00;0.00;;;21.40;99.90;;;;;;4999347;28;20081;-59
2023/08/10 12:03:18;;;;;;;0.00;0.00;;;21.30;99.90;;;;;;5003353;28;20037;-60
2023/08/10 12:05:46;;;;;;;0.00;0.00;;;21.30;99.90;;;;;;5012903;28;20037;-60
2023/08/10 12:08:26;;;;;;;0.00;0.00;;;21.30;99.90;;;;;;5000269;28;20038;-60
2023/08/10 12:10:59;;;;;;;0.00;0.00;;;21.20;99.90;;;;;;5000745;28;20056;-60
2023/08/10 12:13:25;;;;;;;0.00;0.00;;;21.30;99.90;;;;;;5002969;28;20034;-60
2023/08/10 12:15:52;;;;;;;0.00;0.00;;;21.40;99.90;;;;;;5000806;28;20049;-60
2023/08/10 12:18:20;;;;;;;0.00;0.00;;;21.60;99.90;;;;;;5000437;28;20053;-60
2023/08/10 12:20:48;;;;;;;0.00;0.00;;;21.70;99.90;;;;;;5001220;28;20129;-60
2023/08/10 12:23:15;;;;;;;0.00;0.00;;;21.80;99.90;;;;;;5003574;28;20052;-60
2023/08/10 12:25:45;;;;;;;0.00;0.00;;;21.90;99.90;;;;;;5002216;28;20030;-60
2023/08/10 12:28:13;;;;;;;0.00;0.00;;;22.00;99.90;;;;;;4999830;28;20030;-60
2023/08/10 12:30:39;;;;;;;0.00;0.00;;;22.00;99.90;;;;;;5002518;28;20116;-60
2023/08/10 12:33:06;;;;;;;0.00;0.00;;;22.00;99.90;;;;;;5001202;28;20643;-60
2023/08/10 12:35:33;;;;;;;0.00;0.00;;;22.00;99.90;;;;;;5000368;28;20118;-60
2023/08/10 12:37:59;;;;;;;0.00;0.00;;;22.00;99.90;;;;;;5002832;28;20041;-60
2023/08/10 12:40:25;;;;;;;0.00;0.00;;;22.00;99.90;;;;;;5002032;28;20045;-59
2023/08/10 12:42:51;;;;;;;0.00;0.00;;;21.80;99.90;;;;;;4998604;28;20061;-59
2023/08/10 12:45:17;;;;;;;0.00;0.00;;;22.00;99.90;;;;;;5017480;28;20402;-60
2023/08/10 12:47:44;;;;;;;0.00;0.00;;;21.80;99.90;;;;;;5020846;28;20049;-59